sensor_id;sensor_type;location;lat;lon;timestamp;P1;durP1;ratioP1;P2;durP2;ratioP2
57111;SDS011;42992;49.084;19.300;2023-06-22T00:01:45;14.43;;;8.65;;
57111;SDS011;42992;49.084;19.300;2023-06-22T00:04:10;13.85;;;9.38;;
57111;SDS011;42992;49.084;19.300;2023-06-22T00:06:35;13.70;;;7.88;;
57111;SDS011;42992;49.084;19.300;2023-06-22T00:09:01;12.73;;;7.30;;
57111;SDS011;42992;49.084;19.300;2023-06-22T00:11:26;13.23;;;6.97;;
57111;SDS011;42992;49.084;19.300;2023-06-22T00:13:52;10.63;;;6.80;;
57111;SDS011;42992;49.084;19.300;2023-06-22T00:16:18;11.77;;;6.40;;
57111;SDS011;42992;49.084;19.300;2023-06-22T00:18:43;9.70;;;6.57;;
57111;SDS011;42992;49.084;19.300;2023-06-22T00:21:12;9.88;;;5.90;;
57111;SDS011;42992;49.084;19.300;2023-06-22T00:23:37;11.40;;;5.90;;
57111;SDS011;42992;49.084;19.300;2023-06-22T00:26:02;7.82;;;5.63;;
57111;SDS011;42992;49.084;19.300;2023-06-22T00:28:28;8.23;;;6.05;;
57111;SDS011;42992;49.084;19.300;2023-06-22T00:30:54;9.23;;;5.68;;
57111;SDS011;42992;49.084;19.300;2023-06-22T00:33:19;8.75;;;5.70;;
57111;SDS011;42992;49.084;19.300;2023-06-22T00:35:44;8.00;;;5.68;;
57111;SDS011;42992;49.084;19.300;2023-06-22T00:38:09;8.40;;;6.00;;
57111;SDS011;42992;49.084;19.300;2023-06-22T00:40:35;9.35;;;5.45;;
57111;SDS011;42992;49.084;19.300;2023-06-22T00:43:00;8.90;;;4.88;;
57111;SDS011;42992;49.084;19.300;2023-06-22T00:45:25;11.63;;;5.20;;
57111;SDS011;42992;49.084;19.300;2023-06-22T00:47:51;9.73;;;5.35;;
57111;SDS011;42992;49.084;19.300;2023-06-22T00:50:18;10.20;;;5.75;;
57111;SDS011;42992;49.084;19.300;2023-06-22T00:52:43;9.45;;;5.35;;
57111;SDS011;42992;49.084;19.300;2023-06-22T00:55:11;9.52;;;5.35;;
57111;SDS011;42992;49.084;19.300;2023-06-22T00:57:36;8.90;;;5.28;;
57111;SDS011;42992;49.084;19.300;2023-06-22T01:00:02;10.20;;;5.40;;
57111;SDS011;42992;49.084;19.300;2023-06-22T01:02:30;9.57;;;5.22;;
57111;SDS011;42992;49.084;19.300;2023-06-22T01:04:56;7.75;;;5.00;;
57111;SDS011;42992;49.084;19.300;2023-06-22T01:07:27;9.45;;;5.15;;
57111;SDS011;42992;49.084;19.300;2023-06-22T01:12:21;12.43;;;5.38;;
57111;SDS011;42992;49.084;19.300;2023-06-22T01:14:49;13.73;;;4.75;;
57111;SDS011;42992;49.084;19.300;2023-06-22T01:17:17;8.32;;;5.10;;
57111;SDS011;42992;49.084;19.300;2023-06-22T01:19:50;9.38;;;4.85;;
57111;SDS011;42992;49.084;19.300;2023-06-22T01:22:21;10.80;;;4.90;;
57111;SDS011;42992;49.084;19.300;2023-06-22T01:27:32;10.25;;;4.72;;
57111;SDS011;42992;49.084;19.300;2023-06-22T01:29:58;10.73;;;4.82;;
57111;SDS011;42992;49.084;19.300;2023-06-22T01:32:29;9.48;;;4.85;;
57111;SDS011;42992;49.084;19.300;2023-06-22T01:34:55;13.88;;;5.45;;
57111;SDS011;42992;49.084;19.300;2023-06-22T01:37:21;9.88;;;5.40;;
57111;SDS011;42992;49.084;19.300;2023-06-22T01:39:46;8.30;;;4.85;;
57111;SDS011;42992;49.084;19.300;2023-06-22T01:42:11;7.68;;;5.03;;
57111;SDS011;42992;49.084;19.300;2023-06-22T01:44:37;8.73;;;5.55;;
57111;SDS011;42992;49.084;19.300;2023-06-22T01:47:02;11.85;;;5.35;;
57111;SDS011;42992;49.084;19.300;2023-06-22T01:49:28;7.78;;;4.65;;
57111;SDS011;42992;49.084;19.300;2023-06-22T01:51:53;9.27;;;5.38;;
57111;SDS011;42992;49.084;19.300;2023-06-22T01:54:19;11.45;;;5.43;;
57111;SDS011;42992;49.084;19.300;2023-06-22T01:56:44;10.20;;;5.40;;
57111;SDS011;42992;49.084;19.300;2023-06-22T01:59:25;11.52;;;5.70;;
57111;SDS011;42992;49.084;19.300;2023-06-22T02:02:02;9.02;;;5.28;;
57111;SDS011;42992;49.084;19.300;2023-06-22T02:04:46;7.97;;;5.38;;
57111;SDS011;42992;49.084;19.300;2023-06-22T02:07:14;11.55;;;5.43;;
57111;SDS011;42992;49.084;19.300;2023-06-22T02:09:42;12.98;;;5.20;;
57111;SDS011;42992;49.084;19.300;2023-06-22T02:12:08;7.57;;;5.03;;
57111;SDS011;42992;49.084;19.300;2023-06-22T02:14:36;11.55;;;5.32;;
57111;SDS011;42992;49.084;19.300;2023-06-22T02:17:01;10.57;;;4.93;;
57111;SDS011;42992;49.084;19.300;2023-06-22T02:19:27;9.57;;;4.93;;
57111;SDS011;42992;49.084;19.300;2023-06-22T02:21:53;8.73;;;5.07;;
57111;SDS011;42992;49.084;19.300;2023-06-22T02:24:18;13.30;;;5.25;;
57111;SDS011;42992;49.084;19.300;2023-06-22T02:26:43;14.30;;;5.95;;
57111;SDS011;42992;49.084;19.300;2023-06-22T02:29:10;10.60;;;6.03;;
57111;SDS011;42992;49.084;19.300;2023-06-22T02:31:35;7.97;;;6.30;;
57111;SDS011;42992;49.084;19.300;2023-06-22T02:34:01;10.52;;;6.30;;
57111;SDS011;42992;49.084;19.300;2023-06-22T02:36:26;12.57;;;7.65;;
57111;SDS011;42992;49.084;19.300;2023-06-22T02:38:55;15.20;;;7.95;;
57111;SDS011;42992;49.084;19.300;2023-06-22T02:41:25;9.95;;;6.88;;
57111;SDS011;42992;49.084;19.300;2023-06-22T02:43:51;10.82;;;7.38;;
57111;SDS011;42992;49.084;19.300;2023-06-22T02:46:16;12.73;;;7.65;;
57111;SDS011;42992;49.084;19.300;2023-06-22T02:48:41;12.55;;;6.63;;
57111;SDS011;42992;49.084;19.300;2023-06-22T02:51:07;14.95;;;6.68;;
57111;SDS011;42992;49.084;19.300;2023-06-22T02:53:32;10.02;;;5.93;;
57111;SDS011;42992;49.084;19.300;2023-06-22T02:55:57;12.63;;;6.70;;
57111;SDS011;42992;49.084;19.300;2023-06-22T02:58:22;10.48;;;6.50;;
57111;SDS011;42992;49.084;19.300;2023-06-22T03:00:49;10.38;;;5.60;;
57111;SDS011;42992;49.084;19.300;2023-06-22T03:03:18;10.23;;;5.60;;
57111;SDS011;42992;49.084;19.300;2023-06-22T03:05:43;14.15;;;5.60;;
57111;SDS011;42992;49.084;19.300;2023-06-22T03:08:08;9.85;;;5.10;;
57111;SDS011;42992;49.084;19.300;2023-06-22T03:10:33;8.10;;;5.00;;
57111;SDS011;42992;49.084;19.300;2023-06-22T03:12:59;9.15;;;4.82;;
57111;SDS011;42992;49.084;19.300;2023-06-22T03:15:24;11.13;;;5.30;;
57111;SDS011;42992;49.084;19.300;2023-06-22T03:17:50;8.82;;;4.72;;
57111;SDS011;42992;49.084;19.300;2023-06-22T03:20:15;7.35;;;4.72;;
57111;SDS011;42992;49.084;19.300;2023-06-22T03:22:41;10.90;;;5.00;;
57111;SDS011;42992;49.084;19.300;2023-06-22T03:25:07;10.20;;;4.60;;
57111;SDS011;42992;49.084;19.300;2023-06-22T03:27:35;8.77;;;5.13;;
57111;SDS011;42992;49.084;19.300;2023-06-22T03:30:00;8.45;;;4.70;;
57111;SDS011;42992;49.084;19.300;2023-06-22T03:32:25;9.13;;;4.47;;
57111;SDS011;42992;49.084;19.300;2023-06-22T03:34:53;11.77;;;4.68;;
57111;SDS011;42992;49.084;19.300;2023-06-22T03:37:18;14.13;;;4.47;;
57111;SDS011;42992;49.084;19.300;2023-06-22T03:39:43;9.48;;;4.78;;
57111;SDS011;42992;49.084;19.300;2023-06-22T03:42:09;12.27;;;6.95;;
57111;SDS011;42992;49.084;19.300;2023-06-22T03:44:34;8.63;;;5.95;;
57111;SDS011;42992;49.084;19.300;2023-06-22T03:47:01;10.90;;;6.53;;
57111;SDS011;42992;49.084;19.300;2023-06-22T03:49:27;9.98;;;6.35;;
57111;SDS011;42992;49.084;19.300;2023-06-22T03:51:52;12.10;;;6.82;;
57111;SDS011;42992;49.084;19.300;2023-06-22T03:54:17;16.25;;;8.00;;
57111;SDS011;42992;49.084;19.300;2023-06-22T03:56:43;14.70;;;8.20;;
57111;SDS011;42992;49.084;19.300;2023-06-22T03:59:08;13.18;;;7.88;;
57111;SDS011;42992;49.084;19.300;2023-06-22T04:01:34;12.63;;;8.15;;
57111;SDS011;42992;49.084;19.300;2023-06-22T04:04:00;12.13;;;7.38;;
57111;SDS011;42992;49.084;19.300;2023-06-22T04:06:25;11.30;;;6.65;;
57111;SDS011;42992;49.084;19.300;2023-06-22T04:08:51;10.15;;;6.82;;
57111;SDS011;42992;49.084;19.300;2023-06-22T04:11:17;13.18;;;8.45;;
57111;SDS011;42992;49.084;19.300;2023-06-22T04:13:43;17.63;;;7.85;;
57111;SDS011;42992;49.084;19.300;2023-06-22T04:16:08;13.38;;;7.03;;
57111;SDS011;42992;49.084;19.300;2023-06-22T04:18:33;12.73;;;7.03;;
57111;SDS011;42992;49.084;19.300;2023-06-22T04:20:58;14.23;;;7.85;;
57111;SDS011;42992;49.084;19.300;2023-06-22T04:23:24;11.30;;;6.57;;
57111;SDS011;42992;49.084;19.300;2023-06-22T04:25:49;12.65;;;6.20;;
57111;SDS011;42992;49.084;19.300;2023-06-22T04:28:15;9.88;;;5.90;;
57111;SDS011;42992;49.084;19.300;2023-06-22T04:30:40;10.27;;;6.57;;
57111;SDS011;42992;49.084;19.300;2023-06-22T04:33:12;10.43;;;6.32;;
57111;SDS011;42992;49.084;19.300;2023-06-22T04:35:37;11.20;;;6.32;;
57111;SDS011;42992;49.084;19.300;2023-06-22T04:38:06;9.68;;;6.38;;
57111;SDS011;42992;49.084;19.300;2023-06-22T04:40:31;12.82;;;6.15;;
57111;SDS011;42992;49.084;19.300;2023-06-22T04:42:57;10.18;;;5.88;;
57111;SDS011;42992;49.084;19.300;2023-06-22T04:45:27;10.27;;;5.35;;
57111;SDS011;42992;49.084;19.300;2023-06-22T04:47:53;16.80;;;5.70;;
57111;SDS011;42992;49.084;19.300;2023-06-22T04:50:18;11.93;;;5.65;;
57111;SDS011;42992;49.084;19.300;2023-06-22T04:52:46;11.32;;;5.93;;
57111;SDS011;42992;49.084;19.300;2023-06-22T04:55:11;8.85;;;5.45;;
57111;SDS011;42992;49.084;19.300;2023-06-22T04:57:36;12.00;;;5.77;;
57111;SDS011;42992;49.084;19.300;2023-06-22T05:00:04;12.05;;;5.95;;
57111;SDS011;42992;49.084;19.300;2023-06-22T05:02:42;10.07;;;5.47;;
57111;SDS011;42992;49.084;19.300;2023-06-22T05:05:07;11.45;;;5.47;;
57111;SDS011;42992;49.084;19.300;2023-06-22T05:07:36;11.25;;;4.75;;
57111;SDS011;42992;49.084;19.300;2023-06-22T05:10:04;7.72;;;5.43;;
57111;SDS011;42992;49.084;19.300;2023-06-22T05:12:30;10.68;;;6.05;;
57111;SDS011;42992;49.084;19.300;2023-06-22T05:14:56;9.77;;;6.05;;
57111;SDS011;42992;49.084;19.300;2023-06-22T05:17:21;12.80;;;6.15;;
57111;SDS011;42992;49.084;19.300;2023-06-22T05:19:46;8.63;;;5.75;;
57111;SDS011;42992;49.084;19.300;2023-06-22T05:22:15;10.38;;;5.60;;
57111;SDS011;42992;49.084;19.300;2023-06-22T05:24:41;8.20;;;5.78;;
57111;SDS011;42992;49.084;19.300;2023-06-22T05:27:06;9.63;;;5.03;;
57111;SDS011;42992;49.084;19.300;2023-06-22T05:29:32;8.85;;;4.70;;
57111;SDS011;42992;49.084;19.300;2023-06-22T05:31:57;8.68;;;4.75;;
57111;SDS011;42992;49.084;19.300;2023-06-22T05:34:23;6.13;;;3.78;;
57111;SDS011;42992;49.084;19.300;2023-06-22T05:36:48;9.35;;;4.22;;
57111;SDS011;42992;49.084;19.300;2023-06-22T05:39:14;7.32;;;4.45;;
57111;SDS011;42992;49.084;19.300;2023-06-22T05:41:40;8.90;;;4.60;;
57111;SDS011;42992;49.084;19.300;2023-06-22T05:44:05;7.00;;;4.35;;
57111;SDS011;42992;49.084;19.300;2023-06-22T05:46:31;9.60;;;4.28;;
57111;SDS011;42992;49.084;19.300;2023-06-22T05:48:56;9.63;;;4.60;;
57111;SDS011;42992;49.084;19.300;2023-06-22T05:51:22;8.68;;;4.72;;
57111;SDS011;42992;49.084;19.300;2023-06-22T05:53:47;8.23;;;4.32;;
57111;SDS011;42992;49.084;19.300;2023-06-22T05:56:14;9.18;;;4.90;;
57111;SDS011;42992;49.084;19.300;2023-06-22T05:58:40;9.82;;;4.47;;
57111;SDS011;42992;49.084;19.300;2023-06-22T06:01:05;7.60;;;4.47;;
57111;SDS011;42992;49.084;19.300;2023-06-22T06:03:31;9.60;;;4.38;;
57111;SDS011;42992;49.084;19.300;2023-06-22T06:05:56;8.82;;;4.20;;
57111;SDS011;42992;49.084;19.300;2023-06-22T06:08:24;8.27;;;4.88;;
57111;SDS011;42992;49.084;19.300;2023-06-22T06:10:53;13.23;;;4.60;;
57111;SDS011;42992;49.084;19.300;2023-06-22T06:13:20;10.75;;;4.93;;
57111;SDS011;42992;49.084;19.300;2023-06-22T06:15:48;7.57;;;4.60;;
57111;SDS011;42992;49.084;19.300;2023-06-22T06:18:13;8.45;;;4.57;;
57111;SDS011;42992;49.084;19.300;2023-06-22T06:20:39;12.30;;;4.28;;
57111;SDS011;42992;49.084;19.300;2023-06-22T06:23:07;10.35;;;4.80;;
57111;SDS011;42992;49.084;19.300;2023-06-22T06:25:34;7.72;;;4.53;;
57111;SDS011;42992;49.084;19.300;2023-06-22T06:28:00;13.30;;;4.80;;
57111;SDS011;42992;49.084;19.300;2023-06-22T06:30:25;9.27;;;4.22;;
57111;SDS011;42992;49.084;19.300;2023-06-22T06:32:51;9.70;;;4.32;;
57111;SDS011;42992;49.084;19.300;2023-06-22T06:35:16;9.50;;;5.22;;
57111;SDS011;42992;49.084;19.300;2023-06-22T06:37:43;8.88;;;4.68;;
57111;SDS011;42992;49.084;19.300;2023-06-22T06:40:09;12.95;;;4.72;;
57111;SDS011;42992;49.084;19.300;2023-06-22T06:42:35;9.90;;;4.50;;
57111;SDS011;42992;49.084;19.300;2023-06-22T06:45:03;11.48;;;4.45;;
57111;SDS011;42992;49.084;19.300;2023-06-22T06:47:28;10.30;;;3.60;;
57111;SDS011;42992;49.084;19.300;2023-06-22T06:49:54;6.95;;;3.88;;
57111;SDS011;42992;49.084;19.300;2023-06-22T06:52:19;11.45;;;4.18;;
57111;SDS011;42992;49.084;19.300;2023-06-22T06:54:46;10.35;;;4.53;;
57111;SDS011;42992;49.084;19.300;2023-06-22T06:57:11;10.13;;;4.18;;
57111;SDS011;42992;49.084;19.300;2023-06-22T06:59:38;6.10;;;3.63;;
57111;SDS011;42992;49.084;19.300;2023-06-22T07:02:04;7.90;;;4.57;;
57111;SDS011;42992;49.084;19.300;2023-06-22T07:04:30;10.52;;;4.35;;
57111;SDS011;42992;49.084;19.300;2023-06-22T07:07:06;13.63;;;7.43;;
57111;SDS011;42992;49.084;19.300;2023-06-22T07:09:32;16.02;;;7.20;;
57111;SDS011;42992;49.084;19.300;2023-06-22T07:12:02;16.35;;;6.80;;
57111;SDS011;42992;49.084;19.300;2023-06-22T07:14:27;13.52;;;7.25;;
57111;SDS011;42992;49.084;19.300;2023-06-22T07:16:53;14.10;;;7.85;;
57111;SDS011;42992;49.084;19.300;2023-06-22T07:19:28;22.17;;;8.25;;
57111;SDS011;42992;49.084;19.300;2023-06-22T07:21:56;14.95;;;8.38;;
57111;SDS011;42992;49.084;19.300;2023-06-22T07:24:26;13.38;;;8.35;;
57111;SDS011;42992;49.084;19.300;2023-06-22T07:26:52;12.40;;;7.38;;
57111;SDS011;42992;49.084;19.300;2023-06-22T07:29:18;14.38;;;9.07;;
57111;SDS011;42992;49.084;19.300;2023-06-22T07:31:44;15.43;;;7.90;;
57111;SDS011;42992;49.084;19.300;2023-06-22T07:34:10;11.40;;;7.68;;
57111;SDS011;42992;49.084;19.300;2023-06-22T07:36:35;16.80;;;7.40;;
57111;SDS011;42992;49.084;19.300;2023-06-22T07:39:05;13.45;;;7.47;;
57111;SDS011;42992;49.084;19.300;2023-06-22T07:41:39;12.25;;;6.90;;
57111;SDS011;42992;49.084;19.300;2023-06-22T07:44:06;14.27;;;8.27;;
57111;SDS011;42992;49.084;19.300;2023-06-22T07:46:32;12.52;;;7.13;;
57111;SDS011;42992;49.084;19.300;2023-06-22T07:48:58;13.98;;;7.10;;
57111;SDS011;42992;49.084;19.300;2023-06-22T07:51:24;9.43;;;6.60;;
57111;SDS011;42992;49.084;19.300;2023-06-22T07:53:50;15.05;;;6.68;;
57111;SDS011;42992;49.084;19.300;2023-06-22T07:56:17;12.40;;;7.05;;
57111;SDS011;42992;49.084;19.300;2023-06-22T07:58:48;14.38;;;7.57;;
57111;SDS011;42992;49.084;19.300;2023-06-22T08:01:14;18.08;;;6.57;;
57111;SDS011;42992;49.084;19.300;2023-06-22T08:03:39;11.45;;;6.82;;
57111;SDS011;42992;49.084;19.300;2023-06-22T08:06:05;14.25;;;6.43;;
57111;SDS011;42992;49.084;19.300;2023-06-22T08:08:31;13.77;;;6.75;;
57111;SDS011;42992;49.084;19.300;2023-06-22T08:10:57;10.50;;;6.60;;
57111;SDS011;42992;49.084;19.300;2023-06-22T08:13:24;11.20;;;6.63;;
57111;SDS011;42992;49.084;19.300;2023-06-22T08:15:49;14.55;;;6.70;;
57111;SDS011;42992;49.084;19.300;2023-06-22T08:18:15;11.35;;;6.32;;
57111;SDS011;42992;49.084;19.300;2023-06-22T08:20:41;12.23;;;5.78;;
57111;SDS011;42992;49.084;19.300;2023-06-22T08:23:07;13.32;;;6.45;;
57111;SDS011;42992;49.084;19.300;2023-06-22T08:25:32;8.63;;;5.80;;
57111;SDS011;42992;49.084;19.300;2023-06-22T08:27:59;9.52;;;5.57;;
57111;SDS011;42992;49.084;19.300;2023-06-22T08:30:24;10.93;;;5.20;;
57111;SDS011;42992;49.084;19.300;2023-06-22T08:32:49;13.20;;;5.68;;
57111;SDS011;42992;49.084;19.300;2023-06-22T08:35:15;10.27;;;5.47;;
57111;SDS011;42992;49.084;19.300;2023-06-22T08:37:41;11.43;;;5.60;;
57111;SDS011;42992;49.084;19.300;2023-06-22T08:40:08;8.98;;;5.43;;
57111;SDS011;42992;49.084;19.300;2023-06-22T08:42:40;10.00;;;5.53;;
57111;SDS011;42992;49.084;19.300;2023-06-22T08:45:06;11.80;;;5.35;;
57111;SDS011;42992;49.084;19.300;2023-06-22T08:47:31;8.13;;;5.60;;
57111;SDS011;42992;49.084;19.300;2023-06-22T08:49:57;9.52;;;5.45;;
57111;SDS011;42992;49.084;19.300;2023-06-22T08:52:22;8.65;;;5.68;;
57111;SDS011;42992;49.084;19.300;2023-06-22T08:54:48;7.80;;;5.72;;
57111;SDS011;42992;49.084;19.300;2023-06-22T08:57:14;11.65;;;5.38;;
57111;SDS011;42992;49.084;19.300;2023-06-22T08:59:39;9.48;;;5.93;;
57111;SDS011;42992;49.084;19.300;2023-06-22T09:02:05;12.82;;;5.93;;
57111;SDS011;42992;49.084;19.300;2023-06-22T09:04:30;9.50;;;5.75;;
57111;SDS011;42992;49.084;19.300;2023-06-22T09:06:59;12.35;;;5.82;;
57111;SDS011;42992;49.084;19.300;2023-06-22T09:09:25;8.57;;;6.30;;
57111;SDS011;42992;49.084;19.300;2023-06-22T09:11:50;8.88;;;6.18;;
57111;SDS011;42992;49.084;19.300;2023-06-22T09:14:16;9.80;;;6.35;;
57111;SDS011;42992;49.084;19.300;2023-06-22T09:16:41;9.40;;;6.53;;
57111;SDS011;42992;49.084;19.300;2023-06-22T09:19:07;8.50;;;6.15;;
57111;SDS011;42992;49.084;19.300;2023-06-22T09:21:32;8.63;;;6.72;;
57111;SDS011;42992;49.084;19.300;2023-06-22T09:23:58;8.68;;;6.82;;
57111;SDS011;42992;49.084;19.300;2023-06-22T09:26:23;10.45;;;6.15;;
57111;SDS011;42992;49.084;19.300;2023-06-22T09:28:49;10.15;;;6.68;;
57111;SDS011;42992;49.084;19.300;2023-06-22T09:31:14;8.95;;;6.55;;
57111;SDS011;42992;49.084;19.300;2023-06-22T09:33:41;10.43;;;7.28;;
57111;SDS011;42992;49.084;19.300;2023-06-22T09:36:07;9.32;;;6.85;;
57111;SDS011;42992;49.084;19.300;2023-06-22T09:38:36;7.95;;;6.45;;
57111;SDS011;42992;49.084;19.300;2023-06-22T09:41:01;9.98;;;7.22;;
57111;SDS011;42992;49.084;19.300;2023-06-22T09:43:27;9.93;;;7.20;;
57111;SDS011;42992;49.084;19.300;2023-06-22T09:45:52;10.13;;;6.07;;
57111;SDS011;42992;49.084;19.300;2023-06-22T09:48:18;7.75;;;6.65;;
57111;SDS011;42992;49.084;19.300;2023-06-22T09:50:43;10.25;;;7.50;;
57111;SDS011;42992;49.084;19.300;2023-06-22T09:53:09;9.73;;;7.03;;
57111;SDS011;42992;49.084;19.300;2023-06-22T09:55:34;7.60;;;6.53;;
57111;SDS011;42992;49.084;19.300;2023-06-22T09:58:00;7.65;;;6.20;;
57111;SDS011;42992;49.084;19.300;2023-06-22T10:00:25;8.45;;;6.75;;
57111;SDS011;42992;49.084;19.300;2023-06-22T10:02:51;8.05;;;6.82;;
57111;SDS011;42992;49.084;19.300;2023-06-22T10:05:17;10.10;;;7.03;;
57111;SDS011;42992;49.084;19.300;2023-06-22T10:07:42;9.70;;;7.50;;
57111;SDS011;42992;49.084;19.300;2023-06-22T10:10:08;8.18;;;6.82;;
57111;SDS011;42992;49.084;19.300;2023-06-22T10:12:34;8.25;;;7.10;;
57111;SDS011;42992;49.084;19.300;2023-06-22T10:14:59;9.70;;;6.80;;
57111;SDS011;42992;49.084;19.300;2023-06-22T10:17:24;10.30;;;7.05;;
57111;SDS011;42992;49.084;19.300;2023-06-22T10:19:49;10.57;;;6.80;;
57111;SDS011;42992;49.084;19.300;2023-06-22T10:22:15;9.90;;;6.70;;
57111;SDS011;42992;49.084;19.300;2023-06-22T10:24:40;8.07;;;6.50;;
57111;SDS011;42992;49.084;19.300;2023-06-22T10:27:20;10.38;;;6.60;;
57111;SDS011;42992;49.084;19.300;2023-06-22T10:29:45;7.75;;;6.20;;
57111;SDS011;42992;49.084;19.300;2023-06-22T10:32:10;8.38;;;6.80;;
57111;SDS011;42992;49.084;19.300;2023-06-22T10:34:35;9.97;;;6.53;;
57111;SDS011;42992;49.084;19.300;2023-06-22T10:37:01;12.63;;;8.20;;
57111;SDS011;42992;49.084;19.300;2023-06-22T10:39:26;11.60;;;7.87;;
57111;SDS011;42992;49.084;19.300;2023-06-22T10:41:51;10.50;;;7.15;;
57111;SDS011;42992;49.084;19.300;2023-06-22T10:44:16;10.13;;;6.80;;
57111;SDS011;42992;49.084;19.300;2023-06-22T10:46:42;10.07;;;7.10;;
57111;SDS011;42992;49.084;19.300;2023-06-22T10:49:07;9.10;;;7.00;;
57111;SDS011;42992;49.084;19.300;2023-06-22T10:51:33;8.15;;;6.15;;
57111;SDS011;42992;49.084;19.300;2023-06-22T10:53:58;7.80;;;6.60;;
57111;SDS011;42992;49.084;19.300;2023-06-22T10:56:23;9.40;;;6.68;;
57111;SDS011;42992;49.084;19.300;2023-06-22T10:58:52;8.45;;;6.32;;
57111;SDS011;42992;49.084;19.300;2023-06-22T11:01:18;8.27;;;6.38;;
57111;SDS011;42992;49.084;19.300;2023-06-22T11:03:43;10.02;;;6.72;;
57111;SDS011;42992;49.084;19.300;2023-06-22T11:06:08;14.35;;;7.05;;
57111;SDS011;42992;49.084;19.300;2023-06-22T11:08:35;9.68;;;6.72;;
57111;SDS011;42992;49.084;19.300;2023-06-22T11:11:03;7.55;;;5.95;;
57111;SDS011;42992;49.084;19.300;2023-06-22T11:13:29;8.05;;;6.22;;
57111;SDS011;42992;49.084;19.300;2023-06-22T11:18:31;8.60;;;6.55;;
57111;SDS011;42992;49.084;19.300;2023-06-22T11:20:58;9.20;;;6.53;;
57111;SDS011;42992;49.084;19.300;2023-06-22T11:23:24;8.38;;;6.63;;
57111;SDS011;42992;49.084;19.300;2023-06-22T11:25:57;9.05;;;5.75;;
57111;SDS011;42992;49.084;19.300;2023-06-22T11:28:25;8.25;;;6.05;;
57111;SDS011;42992;49.084;19.300;2023-06-22T11:30:50;7.60;;;5.65;;
57111;SDS011;42992;49.084;19.300;2023-06-22T11:33:16;6.43;;;5.72;;
57111;SDS011;42992;49.084;19.300;2023-06-22T11:35:41;7.60;;;5.63;;
57111;SDS011;42992;49.084;19.300;2023-06-22T11:38:06;8.40;;;5.60;;
57111;SDS011;42992;49.084;19.300;2023-06-22T11:40:32;8.32;;;5.65;;
57111;SDS011;42992;49.084;19.300;2023-06-22T11:42:59;10.90;;;6.40;;
57111;SDS011;42992;49.084;19.300;2023-06-22T11:45:25;9.68;;;6.00;;
57111;SDS011;42992;49.084;19.300;2023-06-22T11:47:50;7.53;;;5.30;;
57111;SDS011;42992;49.084;19.300;2023-06-22T11:50:19;7.30;;;6.20;;
57111;SDS011;42992;49.084;19.300;2023-06-22T11:52:47;9.32;;;6.60;;
57111;SDS011;42992;49.084;19.300;2023-06-22T11:55:13;10.95;;;7.15;;
57111;SDS011;42992;49.084;19.300;2023-06-22T11:57:54;8.45;;;5.70;;
57111;SDS011;42992;49.084;19.300;2023-06-22T12:00:22;8.55;;;6.75;;
57111;SDS011;42992;49.084;19.300;2023-06-22T12:02:52;12.00;;;5.75;;
57111;SDS011;42992;49.084;19.300;2023-06-22T12:05:19;8.27;;;6.25;;
57111;SDS011;42992;49.084;19.300;2023-06-22T12:07:46;7.75;;;6.10;;
57111;SDS011;42992;49.084;19.300;2023-06-22T12:10:15;7.97;;;5.68;;
57111;SDS011;42992;49.084;19.300;2023-06-22T12:12:40;9.32;;;5.80;;
57111;SDS011;42992;49.084;19.300;2023-06-22T12:15:08;8.93;;;5.88;;
57111;SDS011;42992;49.084;19.300;2023-06-22T12:17:34;9.05;;;5.65;;
57111;SDS011;42992;49.084;19.300;2023-06-22T12:20:00;7.28;;;5.78;;
57111;SDS011;42992;49.084;19.300;2023-06-22T12:22:26;9.68;;;5.78;;
57111;SDS011;42992;49.084;19.300;2023-06-22T12:24:52;10.48;;;6.03;;
57111;SDS011;42992;49.084;19.300;2023-06-22T12:27:17;8.38;;;5.53;;
57111;SDS011;42992;49.084;19.300;2023-06-22T12:29:45;7.03;;;5.40;;
57111;SDS011;42992;49.084;19.300;2023-06-22T12:32:12;8.82;;;5.60;;
57111;SDS011;42992;49.084;19.300;2023-06-22T12:34:39;7.45;;;5.60;;
57111;SDS011;42992;49.084;19.300;2023-06-22T12:37:04;9.40;;;5.88;;
57111;SDS011;42992;49.084;19.300;2023-06-22T12:39:30;9.85;;;5.95;;
57111;SDS011;42992;49.084;19.300;2023-06-22T12:41:56;10.52;;;6.00;;
57111;SDS011;42992;49.084;19.300;2023-06-22T12:44:21;8.20;;;5.47;;
57111;SDS011;42992;49.084;19.300;2023-06-22T12:46:47;9.82;;;5.78;;
57111;SDS011;42992;49.084;19.300;2023-06-22T12:49:12;9.23;;;5.60;;
57111;SDS011;42992;49.084;19.300;2023-06-22T12:51:41;7.13;;;5.72;;
57111;SDS011;42992;49.084;19.300;2023-06-22T12:54:07;9.13;;;5.82;;
57111;SDS011;42992;49.084;19.300;2023-06-22T12:56:32;7.85;;;5.80;;
57111;SDS011;42992;49.084;19.300;2023-06-22T12:58:59;8.18;;;5.30;;
57111;SDS011;42992;49.084;19.300;2023-06-22T13:01:29;9.88;;;6.15;;
57111;SDS011;42992;49.084;19.300;2023-06-22T13:03:55;7.43;;;5.43;;
57111;SDS011;42992;49.084;19.300;2023-06-22T13:06:21;9.95;;;5.70;;
57111;SDS011;42992;49.084;19.300;2023-06-22T13:08:46;11.07;;;5.70;;
57111;SDS011;42992;49.084;19.300;2023-06-22T13:11:11;10.60;;;6.32;;
57111;SDS011;42992;49.084;19.300;2023-06-22T13:13:40;9.23;;;5.82;;
57111;SDS011;42992;49.084;19.300;2023-06-22T13:16:05;10.95;;;6.50;;
57111;SDS011;42992;49.084;19.300;2023-06-22T13:18:31;10.38;;;5.72;;
57111;SDS011;42992;49.084;19.300;2023-06-22T13:20:58;8.70;;;5.90;;
57111;SDS011;42992;49.084;19.300;2023-06-22T13:23:25;9.93;;;6.07;;
57111;SDS011;42992;49.084;19.300;2023-06-22T13:25:52;10.43;;;5.93;;
57111;SDS011;42992;49.084;19.300;2023-06-22T13:28:18;7.25;;;4.93;;
57111;SDS011;42992;49.084;19.300;2023-06-22T13:30:43;7.63;;;5.18;;
57111;SDS011;42992;49.084;19.300;2023-06-22T13:33:11;8.02;;;5.22;;
57111;SDS011;42992;49.084;19.300;2023-06-22T13:35:36;9.18;;;5.30;;
57111;SDS011;42992;49.084;19.300;2023-06-22T13:38:05;8.23;;;5.45;;
57111;SDS011;42992;49.084;19.300;2023-06-22T13:40:30;7.32;;;5.35;;
57111;SDS011;42992;49.084;19.300;2023-06-22T13:42:56;9.68;;;5.60;;
57111;SDS011;42992;49.084;19.300;2023-06-22T13:45:21;7.22;;;4.95;;
57111;SDS011;42992;49.084;19.300;2023-06-22T13:47:46;8.23;;;5.20;;
57111;SDS011;42992;49.084;19.300;2023-06-22T13:50:12;8.93;;;5.10;;
57111;SDS011;42992;49.084;19.300;2023-06-22T13:52:38;10.93;;;5.57;;
57111;SDS011;42992;49.084;19.300;2023-06-22T13:55:03;7.25;;;5.00;;
57111;SDS011;42992;49.084;19.300;2023-06-22T13:57:29;8.65;;;5.50;;
57111;SDS011;42992;49.084;19.300;2023-06-22T13:59:54;9.73;;;5.37;;
57111;SDS011;42992;49.084;19.300;2023-06-22T14:02:20;8.67;;;5.20;;
57111;SDS011;42992;49.084;19.300;2023-06-22T14:04:45;8.60;;;5.53;;
57111;SDS011;42992;49.084;19.300;2023-06-22T14:07:10;8.17;;;5.33;;
57111;SDS011;42992;49.084;19.300;2023-06-22T14:09:39;7.95;;;5.13;;
57111;SDS011;42992;49.084;19.300;2023-06-22T14:12:04;8.73;;;5.00;;
57111;SDS011;42992;49.084;19.300;2023-06-22T14:14:31;7.60;;;4.97;;
57111;SDS011;42992;49.084;19.300;2023-06-22T14:16:56;7.07;;;5.00;;
57111;SDS011;42992;49.084;19.300;2023-06-22T14:19:21;10.03;;;5.57;;
57111;SDS011;42992;49.084;19.300;2023-06-22T14:21:47;9.03;;;5.37;;
57111;SDS011;42992;49.084;19.300;2023-06-22T14:24:12;8.32;;;5.13;;
57111;SDS011;42992;49.084;19.300;2023-06-22T14:26:37;7.87;;;5.30;;
57111;SDS011;42992;49.084;19.300;2023-06-22T14:29:03;8.77;;;5.35;;
57111;SDS011;42992;49.084;19.300;2023-06-22T14:31:28;7.22;;;4.85;;